Lockney, Texas
Current Conditions -  °F | °C
As of 5:55 PM on Sunday 25 Jan 2015 (Local Time) from KPVW Reporting Station
Clear Clear  
Wind Chill: 50°   Ceiling: Unl
Heat Index: 50°   Visibility: 10mi
Dew Point: 33°   Wind: 6mph
Humidity: 52%   Direction: 300°WNW
Pressure: 30.19"   Gusts: NA
Location:  34.12°N, 101.44°W
Report Text: KPVW 252355Z AUTO 30005KT 10SM CLR 10/01 A3019 RMK AO2 T01000006 10132 20100 TSNO
Loading
Personal Weather Stations






























Interactive Weather Map New forecast layout! Learn more

10-Day Weather Forecast

Advertisements
Track Severe Weather on mobile